Aeroporto :
LOGIN :

Iscrizione | Disclaimer

   EN    FR    IT 

 










Sommario :    VFR   VFR Marginale   IFR   IFR Intensivo   IFR Molto Intensivo
Visibilità : 
Base nubi : 
>= 8 km
>= 3000ft
5 / 8 km
1000 / 3000 ft
1500m / 5 km
500 / 1000 ft
800 / 1500m
200 / 500 ft
< 800m
< 200 ft
Simboli :   Temporali  Nebbia  Neve Forte  Precipitazioni Forti  Vento > 20 kt
SIGMETs :   Varie  Temporali  Ghiacco  Turbolenza  Onda orograficha  Ceneri Vulcaniche







- Altitudine del aeroporto : 1475 ft


LSZC - Buochs Stans

ULTIMO METAR :
  • 211820Z AUTO 25002KT 9999 OVC032 17/13 Q1025

METARs OBSOLETI :
  • 211750Z AUTO VRB03KT 9999 OVC033 17/13 Q1025
  • 211720Z AUTO VRB03KT 9999 OVC035 17/13 Q1025
  • 211650Z AUTO 21005KT 9999 OVC035 17/13 Q1025
  • 211620Z AUTO 23003KT 170V280 9999 OVC037 17/13 Q1025
  • 211550Z AUTO 26003KT 180V310 9999 OVC036 17/13 Q1025

TAF TAF LSZC
Valido dal 21 a 15 ore il 22 a 00 ore UTC


211425Z 2115/2124 10007KT 9999 BKN030
Nessun NOTAM noto per questo aeroporto.



MetMap, La meteo Aeronautica in un colpo d'occhio ! - Copyright ORBIFLY Dicembre 2007 - Disclaimer

ORBIFLY MET'MAP TEAM :

Programmazione e sviluppo : Alexandra Zaïnal
Concezione e sviluppo : Baudouin d'Aumeries
Co-Programmazione e sviluppo : Marc-Olivier Méhu
Supporto tecnico e logistico : Manuel Goepfert
Aiuto per la traduzione : Arnaldo La Scala

Contatto : metmap@orbifly.com




FONTI E CREDITI :

   NOAA